Airfield :
LOGIN :

Register | Disclaimer

   EN    FR    IT 

 










Legend :    VFR   Marginal VFR   IFR   Intensive IFR   Very Intensive IFR
Visi :
Ceiling :
>= 8 km
>= 3000ft
5 to 8 km
1000 to 3000 ft
1500m to 5 km
500 to 1000 ft
800 to 1500m
200 to 500 ft
< 800m
< 200 ft
Symbols :   Thunderstorms  Fog  Heavy snow  Heavy precipitations  Wind > 20 kt
SIGMETs :     Misc.  Thunderstorms  Icing  Turbulence  Mountain Waves  Volcanic Ashes







- Airport Elevation : 191 ft
- IATA code : RNB


ESDF - Ronneby

CURRENT METAR :
  • 261420Z 27014KT 240V320 9999 SCT025 15/09 Q1002

EXPIRED METARs :
  • 261350Z 26008KT 220V300 9999 FEW013 BKN022 13/11 Q1002
  • 261320Z 24010KT 200V260 9999 SCT006 BKN010 13/11 Q1002
  • 261250Z 24009G19KT 9999 BKN006 11/11 Q1002
  • 261220Z 24011KT 210V270 9999 BKN006 10/10 Q1002
  • 261150Z 23011KT 5000 -RA BKN005 10/10 Q1002

TAF TAF ESDF
Valid from the 26 at 15:00 until the 26 at 22:00 UTC


261430Z 2615/2622 26010KT 9999 BKN025
No reported NOTAMs for that airfield.



MET'MAP, your aeronautical weather chart ! - Copyright ORBIFLY December 2007 - Disclaimer

ORBIFLY MET'MAP TEAM :

Programming & Development : Alexandra Zaïnal
Concept & Development : Baudouin d'Aumeries
Co-Development & Prog : Marc-Olivier Méhu
Technical & hardware support : Manuel Goepfert

Contact : metmap@orbifly.com




SOURCES & CREDITS :

   NOAA